sensor_id;sensor_type;location;lat;lon;timestamp;P1;durP1;ratioP1;P2;durP2;ratioP2
11671;SDS011;5892;43.412;24.612;2024-03-07T00:00:16;22.98;;;9.57;;
11671;SDS011;5892;43.412;24.612;2024-03-07T00:02:44;20.23;;;10.93;;
11671;SDS011;5892;43.412;24.612;2024-03-07T00:05:14;20.55;;;10.55;;
11671;SDS011;5892;43.412;24.612;2024-03-07T00:07:44;23.13;;;9.85;;
11671;SDS011;5892;43.412;24.612;2024-03-07T00:10:10;20.42;;;8.95;;
11671;SDS011;5892;43.412;24.612;2024-03-07T00:12:36;25.13;;;11.60;;
11671;SDS011;5892;43.412;24.612;2024-03-07T00:15:04;17.90;;;9.85;;
11671;SDS011;5892;43.412;24.612;2024-03-07T00:17:31;23.25;;;10.73;;
11671;SDS011;5892;43.412;24.612;2024-03-07T00:19:56;29.92;;;9.82;;
11671;SDS011;5892;43.412;24.612;2024-03-07T00:22:22;25.95;;;10.05;;
11671;SDS011;5892;43.412;24.612;2024-03-07T00:24:49;18.65;;;10.40;;
11671;SDS011;5892;43.412;24.612;2024-03-07T00:27:14;20.63;;;10.75;;
11671;SDS011;5892;43.412;24.612;2024-03-07T00:29:40;20.25;;;10.05;;
11671;SDS011;5892;43.412;24.612;2024-03-07T00:32:06;20.50;;;10.20;;
11671;SDS011;5892;43.412;24.612;2024-03-07T00:34:33;22.98;;;10.93;;
11671;SDS011;5892;43.412;24.612;2024-03-07T00:36:59;21.08;;;9.82;;
11671;SDS011;5892;43.412;24.612;2024-03-07T00:39:25;19.85;;;10.40;;
11671;SDS011;5892;43.412;24.612;2024-03-07T00:41:50;19.48;;;9.65;;
11671;SDS011;5892;43.412;24.612;2024-03-07T00:44:18;22.30;;;9.52;;
11671;SDS011;5892;43.412;24.612;2024-03-07T00:46:43;18.13;;;9.82;;
11671;SDS011;5892;43.412;24.612;2024-03-07T00:49:08;23.10;;;11.00;;
11671;SDS011;5892;43.412;24.612;2024-03-07T00:51:34;24.95;;;10.98;;
11671;SDS011;5892;43.412;24.612;2024-03-07T00:54:00;22.15;;;8.60;;
11671;SDS011;5892;43.412;24.612;2024-03-07T00:56:26;22.08;;;9.32;;
11671;SDS011;5892;43.412;24.612;2024-03-07T00:58:53;18.73;;;9.98;;
11671;SDS011;5892;43.412;24.612;2024-03-07T01:01:19;23.92;;;10.13;;
11671;SDS011;5892;43.412;24.612;2024-03-07T01:03:48;19.60;;;9.52;;
11671;SDS011;5892;43.412;24.612;2024-03-07T01:06:13;18.58;;;9.73;;
11671;SDS011;5892;43.412;24.612;2024-03-07T01:08:39;19.17;;;10.07;;
11671;SDS011;5892;43.412;24.612;2024-03-07T01:11:05;20.00;;;9.52;;
11671;SDS011;5892;43.412;24.612;2024-03-07T01:13:43;20.58;;;11.32;;
11671;SDS011;5892;43.412;24.612;2024-03-07T01:16:09;19.73;;;9.48;;
11671;SDS011;5892;43.412;24.612;2024-03-07T01:18:35;23.25;;;10.45;;
11671;SDS011;5892;43.412;24.612;2024-03-07T01:21:01;19.58;;;10.35;;
11671;SDS011;5892;43.412;24.612;2024-03-07T01:23:30;21.08;;;10.40;;
11671;SDS011;5892;43.412;24.612;2024-03-07T01:25:56;18.73;;;10.00;;
11671;SDS011;5892;43.412;24.612;2024-03-07T01:28:23;23.90;;;10.60;;
11671;SDS011;5892;43.412;24.612;2024-03-07T01:30:49;20.70;;;9.95;;
11671;SDS011;5892;43.412;24.612;2024-03-07T01:33:17;22.65;;;10.40;;
11671;SDS011;5892;43.412;24.612;2024-03-07T01:35:46;19.25;;;10.05;;
11671;SDS011;5892;43.412;24.612;2024-03-07T01:38:12;21.85;;;8.82;;
11671;SDS011;5892;43.412;24.612;2024-03-07T01:40:42;20.75;;;9.95;;
11671;SDS011;5892;43.412;24.612;2024-03-07T01:43:08;19.85;;;10.73;;
11671;SDS011;5892;43.412;24.612;2024-03-07T01:45:35;23.92;;;9.48;;
11671;SDS011;5892;43.412;24.612;2024-03-07T01:48:05;21.00;;;10.38;;
11671;SDS011;5892;43.412;24.612;2024-03-07T01:50:33;23.45;;;10.00;;
11671;SDS011;5892;43.412;24.612;2024-03-07T01:53:03;20.48;;;10.07;;
11671;SDS011;5892;43.412;24.612;2024-03-07T01:55:29;23.27;;;11.00;;
11671;SDS011;5892;43.412;24.612;2024-03-07T01:57:58;19.25;;;8.80;;
11671;SDS011;5892;43.412;24.612;2024-03-07T02:00:25;19.98;;;9.43;;
11671;SDS011;5892;43.412;24.612;2024-03-07T02:02:50;23.17;;;10.52;;
11671;SDS011;5892;43.412;24.612;2024-03-07T02:05:20;19.02;;;10.50;;
11671;SDS011;5892;43.412;24.612;2024-03-07T02:07:46;20.88;;;10.13;;
11671;SDS011;5892;43.412;24.612;2024-03-07T02:10:12;19.23;;;9.57;;
11671;SDS011;5892;43.412;24.612;2024-03-07T02:12:38;21.45;;;10.35;;
11671;SDS011;5892;43.412;24.612;2024-03-07T02:15:04;22.45;;;11.27;;
11671;SDS011;5892;43.412;24.612;2024-03-07T02:17:29;19.65;;;9.32;;
11671;SDS011;5892;43.412;24.612;2024-03-07T02:19:55;19.10;;;9.52;;
11671;SDS011;5892;43.412;24.612;2024-03-07T02:22:20;22.85;;;10.30;;
11671;SDS011;5892;43.412;24.612;2024-03-07T02:24:46;21.23;;;10.30;;
11671;SDS011;5892;43.412;24.612;2024-03-07T02:27:12;17.52;;;10.10;;
11671;SDS011;5892;43.412;24.612;2024-03-07T02:29:39;20.25;;;9.50;;
11671;SDS011;5892;43.412;24.612;2024-03-07T02:32:05;26.17;;;9.93;;
11671;SDS011;5892;43.412;24.612;2024-03-07T02:34:31;20.15;;;9.63;;
11671;SDS011;5892;43.412;24.612;2024-03-07T02:36:56;21.48;;;10.20;;
11671;SDS011;5892;43.412;24.612;2024-03-07T02:39:22;22.23;;;11.13;;
11671;SDS011;5892;43.412;24.612;2024-03-07T02:41:47;17.55;;;8.82;;
11671;SDS011;5892;43.412;24.612;2024-03-07T02:44:13;17.45;;;9.73;;
11671;SDS011;5892;43.412;24.612;2024-03-07T02:46:39;21.98;;;11.30;;
11671;SDS011;5892;43.412;24.612;2024-03-07T02:49:05;20.08;;;9.10;;
11671;SDS011;5892;43.412;24.612;2024-03-07T02:51:31;18.05;;;9.27;;
11671;SDS011;5892;43.412;24.612;2024-03-07T02:53:57;19.73;;;8.48;;
11671;SDS011;5892;43.412;24.612;2024-03-07T02:56:23;19.90;;;9.65;;
11671;SDS011;5892;43.412;24.612;2024-03-07T02:58:48;18.33;;;8.45;;
11671;SDS011;5892;43.412;24.612;2024-03-07T03:01:14;18.75;;;9.18;;
11671;SDS011;5892;43.412;24.612;2024-03-07T03:03:39;23.65;;;10.23;;
11671;SDS011;5892;43.412;24.612;2024-03-07T03:06:08;21.77;;;10.10;;
11671;SDS011;5892;43.412;24.612;2024-03-07T03:08:35;18.45;;;9.75;;
11671;SDS011;5892;43.412;24.612;2024-03-07T03:11:00;17.88;;;8.68;;
11671;SDS011;5892;43.412;24.612;2024-03-07T03:13:26;19.23;;;9.95;;
11671;SDS011;5892;43.412;24.612;2024-03-07T03:15:56;19.45;;;9.60;;
11671;SDS011;5892;43.412;24.612;2024-03-07T03:18:24;18.20;;;8.88;;
11671;SDS011;5892;43.412;24.612;2024-03-07T03:20:50;17.83;;;8.93;;
11671;SDS011;5892;43.412;24.612;2024-03-07T03:23:17;18.65;;;9.40;;
11671;SDS011;5892;43.412;24.612;2024-03-07T03:25:48;24.25;;;10.43;;
11671;SDS011;5892;43.412;24.612;2024-03-07T03:28:14;17.98;;;9.55;;
11671;SDS011;5892;43.412;24.612;2024-03-07T03:30:40;18.08;;;9.43;;
11671;SDS011;5892;43.412;24.612;2024-03-07T03:33:08;15.75;;;8.23;;
11671;SDS011;5892;43.412;24.612;2024-03-07T03:35:34;18.30;;;10.35;;
11671;SDS011;5892;43.412;24.612;2024-03-07T03:38:00;18.83;;;8.38;;
11671;SDS011;5892;43.412;24.612;2024-03-07T03:40:26;18.83;;;9.45;;
11671;SDS011;5892;43.412;24.612;2024-03-07T03:42:51;19.20;;;9.98;;
11671;SDS011;5892;43.412;24.612;2024-03-07T03:45:17;13.77;;;7.15;;
11671;SDS011;5892;43.412;24.612;2024-03-07T03:47:43;19.83;;;8.93;;
11671;SDS011;5892;43.412;24.612;2024-03-07T03:50:11;20.50;;;9.13;;
11671;SDS011;5892;43.412;24.612;2024-03-07T03:52:39;17.42;;;7.68;;
11671;SDS011;5892;43.412;24.612;2024-03-07T03:55:05;17.73;;;9.23;;
11671;SDS011;5892;43.412;24.612;2024-03-07T03:57:32;20.67;;;8.57;;
11671;SDS011;5892;43.412;24.612;2024-03-07T03:59:58;19.88;;;8.90;;
11671;SDS011;5892;43.412;24.612;2024-03-07T04:02:25;18.92;;;9.23;;
11671;SDS011;5892;43.412;24.612;2024-03-07T04:04:50;20.00;;;9.18;;
11671;SDS011;5892;43.412;24.612;2024-03-07T04:07:18;20.05;;;9.40;;
11671;SDS011;5892;43.412;24.612;2024-03-07T04:09:44;20.23;;;9.85;;
11671;SDS011;5892;43.412;24.612;2024-03-07T04:12:10;19.55;;;8.15;;
11671;SDS011;5892;43.412;24.612;2024-03-07T04:14:39;20.45;;;9.20;;
11671;SDS011;5892;43.412;24.612;2024-03-07T04:17:06;21.95;;;8.82;;
11671;SDS011;5892;43.412;24.612;2024-03-07T04:19:41;23.13;;;10.38;;
11671;SDS011;5892;43.412;24.612;2024-03-07T04:22:07;20.63;;;9.95;;
11671;SDS011;5892;43.412;24.612;2024-03-07T04:24:34;20.27;;;8.88;;
11671;SDS011;5892;43.412;24.612;2024-03-07T04:27:00;18.88;;;9.45;;
11671;SDS011;5892;43.412;24.612;2024-03-07T04:29:29;22.92;;;9.23;;
11671;SDS011;5892;43.412;24.612;2024-03-07T04:31:59;17.58;;;9.15;;
11671;SDS011;5892;43.412;24.612;2024-03-07T04:34:27;23.50;;;10.57;;
11671;SDS011;5892;43.412;24.612;2024-03-07T04:37:01;18.60;;;9.52;;
11671;SDS011;5892;43.412;24.612;2024-03-07T04:39:27;21.17;;;9.15;;
11671;SDS011;5892;43.412;24.612;2024-03-07T04:42:03;19.52;;;8.30;;
11671;SDS011;5892;43.412;24.612;2024-03-07T04:44:31;16.83;;;8.30;;
11671;SDS011;5892;43.412;24.612;2024-03-07T04:46:58;21.70;;;9.88;;
11671;SDS011;5892;43.412;24.612;2024-03-07T04:49:25;20.42;;;9.07;;
11671;SDS011;5892;43.412;24.612;2024-03-07T04:51:52;16.95;;;9.18;;
11671;SDS011;5892;43.412;24.612;2024-03-07T04:54:20;18.45;;;8.25;;
11671;SDS011;5892;43.412;24.612;2024-03-07T04:56:48;19.27;;;10.90;;
11671;SDS011;5892;43.412;24.612;2024-03-07T04:59:14;19.88;;;9.38;;
11671;SDS011;5892;43.412;24.612;2024-03-07T05:01:41;24.75;;;8.48;;
11671;SDS011;5892;43.412;24.612;2024-03-07T05:04:07;20.98;;;10.88;;
11671;SDS011;5892;43.412;24.612;2024-03-07T05:06:33;17.42;;;8.35;;
11671;SDS011;5892;43.412;24.612;2024-03-07T05:09:08;19.10;;;8.35;;
11671;SDS011;5892;43.412;24.612;2024-03-07T05:11:35;22.58;;;9.23;;
11671;SDS011;5892;43.412;24.612;2024-03-07T05:14:01;23.88;;;10.13;;
11671;SDS011;5892;43.412;24.612;2024-03-07T05:16:47;19.08;;;9.20;;
11671;SDS011;5892;43.412;24.612;2024-03-07T05:19:30;15.88;;;8.85;;
11671;SDS011;5892;43.412;24.612;2024-03-07T05:21:59;20.80;;;10.10;;
11671;SDS011;5892;43.412;24.612;2024-03-07T05:24:25;18.83;;;9.73;;
11671;SDS011;5892;43.412;24.612;2024-03-07T05:26:50;19.92;;;10.15;;
11671;SDS011;5892;43.412;24.612;2024-03-07T05:29:18;19.33;;;8.90;;
11671;SDS011;5892;43.412;24.612;2024-03-07T05:31:43;21.27;;;9.02;;
11671;SDS011;5892;43.412;24.612;2024-03-07T05:34:14;22.20;;;10.13;;
11671;SDS011;5892;43.412;24.612;2024-03-07T05:36:41;20.08;;;11.48;;
11671;SDS011;5892;43.412;24.612;2024-03-07T05:39:11;18.35;;;9.80;;
11671;SDS011;5892;43.412;24.612;2024-03-07T05:41:38;23.42;;;11.13;;
11671;SDS011;5892;43.412;24.612;2024-03-07T05:44:04;21.80;;;10.55;;
11671;SDS011;5892;43.412;24.612;2024-03-07T05:46:39;27.33;;;12.18;;
11671;SDS011;5892;43.412;24.612;2024-03-07T05:51:39;20.08;;;9.65;;
11671;SDS011;5892;43.412;24.612;2024-03-07T05:54:07;21.33;;;9.63;;
11671;SDS011;5892;43.412;24.612;2024-03-07T05:56:33;23.20;;;11.32;;
11671;SDS011;5892;43.412;24.612;2024-03-07T05:59:02;21.15;;;10.05;;
11671;SDS011;5892;43.412;24.612;2024-03-07T06:01:37;23.80;;;10.63;;
11671;SDS011;5892;43.412;24.612;2024-03-07T06:04:04;18.42;;;9.15;;
11671;SDS011;5892;43.412;24.612;2024-03-07T06:06:33;23.25;;;11.30;;
11671;SDS011;5892;43.412;24.612;2024-03-07T06:09:01;20.83;;;10.55;;
11671;SDS011;5892;43.412;24.612;2024-03-07T06:11:38;23.30;;;10.98;;
11671;SDS011;5892;43.412;24.612;2024-03-07T06:14:04;21.55;;;9.75;;
11671;SDS011;5892;43.412;24.612;2024-03-07T06:16:31;23.10;;;10.85;;
11671;SDS011;5892;43.412;24.612;2024-03-07T06:18:59;22.33;;;10.63;;
11671;SDS011;5892;43.412;24.612;2024-03-07T06:21:26;22.95;;;11.65;;
11671;SDS011;5892;43.412;24.612;2024-03-07T06:23:53;23.02;;;9.80;;
11671;SDS011;5892;43.412;24.612;2024-03-07T06:26:33;19.65;;;9.68;;
11671;SDS011;5892;43.412;24.612;2024-03-07T06:29:24;23.83;;;11.20;;
11671;SDS011;5892;43.412;24.612;2024-03-07T06:31:52;23.48;;;11.45;;
11671;SDS011;5892;43.412;24.612;2024-03-07T06:34:19;22.80;;;11.70;;
11671;SDS011;5892;43.412;24.612;2024-03-07T06:36:45;17.80;;;10.32;;
11671;SDS011;5892;43.412;24.612;2024-03-07T06:39:10;20.30;;;10.27;;
11671;SDS011;5892;43.412;24.612;2024-03-07T06:41:37;26.85;;;11.32;;
11671;SDS011;5892;43.412;24.612;2024-03-07T06:44:04;18.85;;;9.90;;
11671;SDS011;5892;43.412;24.612;2024-03-07T06:46:30;26.77;;;12.32;;
11671;SDS011;5892;43.412;24.612;2024-03-07T06:48:59;27.42;;;13.02;;
11671;SDS011;5892;43.412;24.612;2024-03-07T06:51:24;22.83;;;9.98;;
11671;SDS011;5892;43.412;24.612;2024-03-07T06:53:50;23.55;;;10.98;;
11671;SDS011;5892;43.412;24.612;2024-03-07T06:56:16;24.55;;;12.45;;
11671;SDS011;5892;43.412;24.612;2024-03-07T06:58:41;26.05;;;10.70;;
11671;SDS011;5892;43.412;24.612;2024-03-07T07:01:07;18.17;;;10.25;;
11671;SDS011;5892;43.412;24.612;2024-03-07T07:03:38;24.50;;;11.40;;
11671;SDS011;5892;43.412;24.612;2024-03-07T07:06:04;22.33;;;10.57;;
11671;SDS011;5892;43.412;24.612;2024-03-07T07:08:31;27.23;;;12.85;;
11671;SDS011;5892;43.412;24.612;2024-03-07T07:10:57;19.33;;;9.63;;
11671;SDS011;5892;43.412;24.612;2024-03-07T07:13:23;20.35;;;11.30;;
11671;SDS011;5892;43.412;24.612;2024-03-07T07:15:49;23.02;;;11.57;;
11671;SDS011;5892;43.412;24.612;2024-03-07T07:18:14;21.20;;;11.48;;
11671;SDS011;5892;43.412;24.612;2024-03-07T07:20:40;27.50;;;11.38;;
11671;SDS011;5892;43.412;24.612;2024-03-07T07:23:06;19.35;;;10.23;;
11671;SDS011;5892;43.412;24.612;2024-03-07T07:25:31;30.77;;;10.77;;
11671;SDS011;5892;43.412;24.612;2024-03-07T07:27:57;20.15;;;10.55;;
11671;SDS011;5892;43.412;24.612;2024-03-07T07:30:23;22.75;;;9.82;;
11671;SDS011;5892;43.412;24.612;2024-03-07T07:32:50;21.95;;;11.85;;
11671;SDS011;5892;43.412;24.612;2024-03-07T07:35:17;26.10;;;10.32;;
11671;SDS011;5892;43.412;24.612;2024-03-07T07:37:46;20.40;;;9.77;;
11671;SDS011;5892;43.412;24.612;2024-03-07T07:40:15;20.55;;;11.20;;
11671;SDS011;5892;43.412;24.612;2024-03-07T07:42:45;25.10;;;11.77;;
11671;SDS011;5892;43.412;24.612;2024-03-07T07:45:13;27.83;;;10.68;;
11671;SDS011;5892;43.412;24.612;2024-03-07T07:47:44;23.17;;;10.60;;
11671;SDS011;5892;43.412;24.612;2024-03-07T07:50:15;25.48;;;13.18;;
11671;SDS011;5892;43.412;24.612;2024-03-07T07:55:15;22.17;;;11.15;;
11671;SDS011;5892;43.412;24.612;2024-03-07T07:57:42;26.90;;;11.98;;
11671;SDS011;5892;43.412;24.612;2024-03-07T08:00:18;22.88;;;11.73;;
11671;SDS011;5892;43.412;24.612;2024-03-07T08:02:50;26.52;;;12.40;;
11671;SDS011;5892;43.412;24.612;2024-03-07T08:05:20;28.35;;;12.65;;
11671;SDS011;5892;43.412;24.612;2024-03-07T08:07:48;26.57;;;12.20;;
11671;SDS011;5892;43.412;24.612;2024-03-07T08:10:21;28.45;;;12.43;;
11671;SDS011;5892;43.412;24.612;2024-03-07T08:12:48;25.80;;;12.43;;
11671;SDS011;5892;43.412;24.612;2024-03-07T08:15:16;24.02;;;11.52;;
11671;SDS011;5892;43.412;24.612;2024-03-07T08:17:45;23.33;;;11.40;;
11671;SDS011;5892;43.412;24.612;2024-03-07T08:20:16;24.88;;;12.18;;
11671;SDS011;5892;43.412;24.612;2024-03-07T08:22:43;29.35;;;13.55;;
11671;SDS011;5892;43.412;24.612;2024-03-07T08:25:13;22.02;;;11.52;;
11671;SDS011;5892;43.412;24.612;2024-03-07T08:27:40;25.95;;;13.38;;
11671;SDS011;5892;43.412;24.612;2024-03-07T08:30:07;28.08;;;13.07;;
11671;SDS011;5892;43.412;24.612;2024-03-07T08:32:44;28.02;;;12.77;;
11671;SDS011;5892;43.412;24.612;2024-03-07T08:35:11;22.65;;;11.38;;
11671;SDS011;5892;43.412;24.612;2024-03-07T08:37:43;23.38;;;11.90;;
11671;SDS011;5892;43.412;24.612;2024-03-07T08:40:10;25.15;;;12.18;;
11671;SDS011;5892;43.412;24.612;2024-03-07T08:42:44;27.30;;;13.50;;
11671;SDS011;5892;43.412;24.612;2024-03-07T08:45:16;32.08;;;13.45;;
11671;SDS011;5892;43.412;24.612;2024-03-07T08:47:48;26.92;;;12.30;;
11671;SDS011;5892;43.412;24.612;2024-03-07T08:50:16;26.35;;;13.25;;
11671;SDS011;5892;43.412;24.612;2024-03-07T08:52:43;21.52;;;11.10;;
11671;SDS011;5892;43.412;24.612;2024-03-07T08:55:11;30.08;;;12.88;;
11671;SDS011;5892;43.412;24.612;2024-03-07T08:57:39;28.60;;;12.90;;
11671;SDS011;5892;43.412;24.612;2024-03-07T09:00:05;27.67;;;11.50;;
11671;SDS011;5892;43.412;24.612;2024-03-07T09:02:39;26.90;;;13.63;;
11671;SDS011;5892;43.412;24.612;2024-03-07T09:05:05;29.83;;;13.10;;
11671;SDS011;5892;43.412;24.612;2024-03-07T09:07:32;21.75;;;10.90;;
11671;SDS011;5892;43.412;24.612;2024-03-07T09:10:00;28.67;;;13.43;;
11671;SDS011;5892;43.412;24.612;2024-03-07T09:12:26;25.15;;;11.82;;
11671;SDS011;5892;43.412;24.612;2024-03-07T09:14:52;29.13;;;14.20;;
11671;SDS011;5892;43.412;24.612;2024-03-07T09:17:18;26.67;;;11.18;;
11671;SDS011;5892;43.412;24.612;2024-03-07T09:19:44;26.33;;;11.50;;
11671;SDS011;5892;43.412;24.612;2024-03-07T09:22:10;21.33;;;11.43;;
11671;SDS011;5892;43.412;24.612;2024-03-07T09:24:35;26.40;;;12.55;;
11671;SDS011;5892;43.412;24.612;2024-03-07T09:27:02;28.42;;;12.43;;
11671;SDS011;5892;43.412;24.612;2024-03-07T09:29:28;26.55;;;12.98;;
11671;SDS011;5892;43.412;24.612;2024-03-07T09:31:54;24.73;;;11.68;;
11671;SDS011;5892;43.412;24.612;2024-03-07T09:34:20;23.25;;;11.60;;
11671;SDS011;5892;43.412;24.612;2024-03-07T09:36:49;23.35;;;12.35;;
11671;SDS011;5892;43.412;24.612;2024-03-07T09:39:15;25.15;;;11.63;;
11671;SDS011;5892;43.412;24.612;2024-03-07T09:41:41;28.35;;;13.02;;
11671;SDS011;5892;43.412;24.612;2024-03-07T09:44:14;29.52;;;12.70;;
11671;SDS011;5892;43.412;24.612;2024-03-07T09:46:47;32.92;;;13.18;;
11671;SDS011;5892;43.412;24.612;2024-03-07T09:49:14;25.35;;;12.18;;
11671;SDS011;5892;43.412;24.612;2024-03-07T09:51:40;24.85;;;11.80;;
11671;SDS011;5892;43.412;24.612;2024-03-07T09:54:07;29.05;;;13.25;;
11671;SDS011;5892;43.412;24.612;2024-03-07T09:56:34;29.13;;;11.68;;
11671;SDS011;5892;43.412;24.612;2024-03-07T09:59:02;28.08;;;11.63;;
11671;SDS011;5892;43.412;24.612;2024-03-07T10:01:32;23.80;;;12.20;;
11671;SDS011;5892;43.412;24.612;2024-03-07T10:03:59;29.33;;;13.57;;
11671;SDS011;5892;43.412;24.612;2024-03-07T10:09:03;27.13;;;14.23;;
11671;SDS011;5892;43.412;24.612;2024-03-07T10:11:30;28.35;;;13.65;;
11671;SDS011;5892;43.412;24.612;2024-03-07T10:13:55;24.50;;;11.90;;
11671;SDS011;5892;43.412;24.612;2024-03-07T10:16:22;28.92;;;12.27;;
11671;SDS011;5892;43.412;24.612;2024-03-07T10:18:48;24.60;;;12.38;;
11671;SDS011;5892;43.412;24.612;2024-03-07T10:21:18;25.75;;;12.70;;
11671;SDS011;5892;43.412;24.612;2024-03-07T10:23:55;26.60;;;12.77;;
11671;SDS011;5892;43.412;24.612;2024-03-07T10:26:31;29.20;;;13.52;;
11671;SDS011;5892;43.412;24.612;2024-03-07T10:29:03;29.67;;;14.85;;
11671;SDS011;5892;43.412;24.612;2024-03-07T10:31:30;28.48;;;13.43;;
11671;SDS011;5892;43.412;24.612;2024-03-07T10:34:03;25.08;;;11.85;;
11671;SDS011;5892;43.412;24.612;2024-03-07T10:36:29;29.10;;;14.15;;
11671;SDS011;5892;43.412;24.612;2024-03-07T10:39:02;31.42;;;13.43;;
11671;SDS011;5892;43.412;24.612;2024-03-07T10:41:43;21.90;;;11.60;;
11671;SDS011;5892;43.412;24.612;2024-03-07T10:44:15;24.88;;;12.15;;
11671;SDS011;5892;43.412;24.612;2024-03-07T10:46:52;26.58;;;13.75;;
11671;SDS011;5892;43.412;24.612;2024-03-07T10:51:56;28.45;;;12.85;;
11671;SDS011;5892;43.412;24.612;2024-03-07T10:54:39;23.85;;;12.50;;
11671;SDS011;5892;43.412;24.612;2024-03-07T10:57:23;27.40;;;13.20;;
11671;SDS011;5892;43.412;24.612;2024-03-07T10:59:50;28.65;;;13.45;;
11671;SDS011;5892;43.412;24.612;2024-03-07T11:04:52;28.50;;;12.82;;
11671;SDS011;5892;43.412;24.612;2024-03-07T11:07:19;31.70;;;14.05;;
11671;SDS011;5892;43.412;24.612;2024-03-07T11:09:49;30.67;;;14.10;;
11671;SDS011;5892;43.412;24.612;2024-03-07T11:12:17;29.60;;;15.15;;
11671;SDS011;5892;43.412;24.612;2024-03-07T11:14:45;33.70;;;14.35;;
11671;SDS011;5892;43.412;24.612;2024-03-07T11:17:12;31.92;;;13.77;;
11671;SDS011;5892;43.412;24.612;2024-03-07T11:19:38;33.28;;;14.10;;
11671;SDS011;5892;43.412;24.612;2024-03-07T11:22:04;31.30;;;15.55;;
11671;SDS011;5892;43.412;24.612;2024-03-07T11:24:42;31.30;;;16.33;;
11671;SDS011;5892;43.412;24.612;2024-03-07T11:27:10;33.40;;;16.30;;
11671;SDS011;5892;43.412;24.612;2024-03-07T11:29:42;40.08;;;15.77;;
11671;SDS011;5892;43.412;24.612;2024-03-07T11:32:17;31.73;;;16.33;;
11671;SDS011;5892;43.412;24.612;2024-03-07T11:34:46;28.25;;;14.05;;
11671;SDS011;5892;43.412;24.612;2024-03-07T11:39:47;33.22;;;15.02;;
11671;SDS011;5892;43.412;24.612;2024-03-07T11:42:27;32.47;;;14.65;;
11671;SDS011;5892;43.412;24.612;2024-03-07T11:44:56;36.53;;;15.77;;
11671;SDS011;5892;43.412;24.612;2024-03-07T11:47:26;35.47;;;16.50;;
11671;SDS011;5892;43.412;24.612;2024-03-07T11:50:00;30.45;;;14.57;;
11671;SDS011;5892;43.412;24.612;2024-03-07T11:52:27;32.63;;;15.60;;
11671;SDS011;5892;43.412;24.612;2024-03-07T11:54:53;29.90;;;14.07;;
11671;SDS011;5892;43.412;24.612;2024-03-07T11:57:18;29.65;;;15.23;;
11671;SDS011;5892;43.412;24.612;2024-03-07T11:59:45;29.90;;;15.05;;
11671;SDS011;5892;43.412;24.612;2024-03-07T12:02:17;29.77;;;15.00;;
11671;SDS011;5892;43.412;24.612;2024-03-07T12:04:46;30.88;;;15.23;;
11671;SDS011;5892;43.412;24.612;2024-03-07T12:07:12;24.63;;;13.60;;
11671;SDS011;5892;43.412;24.612;2024-03-07T12:09:38;26.10;;;12.95;;
11671;SDS011;5892;43.412;24.612;2024-03-07T12:12:06;31.45;;;14.45;;
11671;SDS011;5892;43.412;24.612;2024-03-07T12:14:34;15.45;;;8.95;;
11671;SDS011;5892;43.412;24.612;2024-03-07T12:17:03;17.25;;;8.60;;
11671;SDS011;5892;43.412;24.612;2024-03-07T12:19:32;13.32;;;7.68;;
11671;SDS011;5892;43.412;24.612;2024-03-07T12:22:07;15.30;;;8.60;;
11671;SDS011;5892;43.412;24.612;2024-03-07T12:24:38;14.02;;;7.95;;
11671;SDS011;5892;43.412;24.612;2024-03-07T12:27:11;15.63;;;8.00;;
11671;SDS011;5892;43.412;24.612;2024-03-07T12:29:40;16.58;;;9.27;;
11671;SDS011;5892;43.412;24.612;2024-03-07T12:32:08;17.38;;;8.65;;
11671;SDS011;5892;43.412;24.612;2024-03-07T12:34:38;19.05;;;9.27;;
11671;SDS011;5892;43.412;24.612;2024-03-07T12:37:12;18.75;;;10.70;;
11671;SDS011;5892;43.412;24.612;2024-03-07T12:39:44;18.98;;;10.77;;
11671;SDS011;5892;43.412;24.612;2024-03-07T12:42:14;20.38;;;9.65;;
11671;SDS011;5892;43.412;24.612;2024-03-07T12:44:43;17.30;;;10.55;;
11671;SDS011;5892;43.412;24.612;2024-03-07T12:47:16;19.20;;;10.43;;
11671;SDS011;5892;43.412;24.612;2024-03-07T12:49:43;17.98;;;10.02;;
11671;SDS011;5892;43.412;24.612;2024-03-07T12:52:10;17.95;;;9.05;;
11671;SDS011;5892;43.412;24.612;2024-03-07T12:54:40;22.42;;;10.95;;
11671;SDS011;5892;43.412;24.612;2024-03-07T12:57:07;17.35;;;10.55;;
11671;SDS011;5892;43.412;24.612;2024-03-07T12:59:42;21.13;;;10.05;;
11671;SDS011;5892;43.412;24.612;2024-03-07T13:02:09;18.88;;;10.57;;
11671;SDS011;5892;43.412;24.612;2024-03-07T13:04:36;21.25;;;11.68;;
11671;SDS011;5892;43.412;24.612;2024-03-07T13:07:05;19.20;;;8.75;;
11671;SDS011;5892;43.412;24.612;2024-03-07T13:09:33;15.10;;;9.55;;
11671;SDS011;5892;43.412;24.612;2024-03-07T13:11:59;19.88;;;9.85;;
11671;SDS011;5892;43.412;24.612;2024-03-07T13:14:28;20.48;;;10.68;;
11671;SDS011;5892;43.412;24.612;2024-03-07T13:16:58;16.75;;;8.50;;
11671;SDS011;5892;43.412;24.612;2024-03-07T13:19:30;17.27;;;9.48;;
11671;SDS011;5892;43.412;24.612;2024-03-07T13:21:55;19.35;;;10.23;;
11671;SDS011;5892;43.412;24.612;2024-03-07T13:24:22;19.25;;;10.25;;
11671;SDS011;5892;43.412;24.612;2024-03-07T13:26:48;16.38;;;8.30;;
11671;SDS011;5892;43.412;24.612;2024-03-07T13:29:13;18.75;;;9.52;;
11671;SDS011;5892;43.412;24.612;2024-03-07T13:31:39;12.93;;;8.13;;
11671;SDS011;5892;43.412;24.612;2024-03-07T13:34:11;15.15;;;8.25;;
11671;SDS011;5892;43.412;24.612;2024-03-07T13:36:40;14.25;;;7.90;;
11671;SDS011;5892;43.412;24.612;2024-03-07T13:39:07;15.00;;;8.02;;
11671;SDS011;5892;43.412;24.612;2024-03-07T13:41:36;13.13;;;7.72;;
11671;SDS011;5892;43.412;24.612;2024-03-07T13:44:06;15.80;;;7.80;;
11671;SDS011;5892;43.412;24.612;2024-03-07T13:46:32;15.88;;;8.23;;
11671;SDS011;5892;43.412;24.612;2024-03-07T13:48:59;13.82;;;7.32;;
11671;SDS011;5892;43.412;24.612;2024-03-07T13:51:36;13.40;;;7.10;;
11671;SDS011;5892;43.412;24.612;2024-03-07T13:54:04;14.98;;;6.93;;
11671;SDS011;5892;43.412;24.612;2024-03-07T14:20:42;12.02;;;6.70;;
11671;SDS011;5892;43.412;24.612;2024-03-07T14:23:19;10.57;;;6.75;;
11671;SDS011;5892;43.412;24.612;2024-03-07T14:29:20;11.48;;;5.97;;
11671;SDS011;5892;43.412;24.612;2024-03-07T14:31:47;14.25;;;5.50;;
11671;SDS011;5892;43.412;24.612;2024-03-07T14:37:23;13.45;;;6.63;;
11671;SDS011;5892;43.412;24.612;2024-03-07T14:39:58;12.88;;;7.45;;
11671;SDS011;5892;43.412;24.612;2024-03-07T14:42:35;13.65;;;6.68;;
11671;SDS011;5892;43.412;24.612;2024-03-07T14:45:07;12.05;;;6.55;;
11671;SDS011;5892;43.412;24.612;2024-03-07T14:47:38;9.57;;;6.30;;
11671;SDS011;5892;43.412;24.612;2024-03-07T14:50:03;12.88;;;7.13;;
11671;SDS011;5892;43.412;24.612;2024-03-07T14:52:29;11.40;;;6.70;;
11671;SDS011;5892;43.412;24.612;2024-03-07T14:54:56;11.65;;;7.00;;
11671;SDS011;5892;43.412;24.612;2024-03-07T14:57:22;12.77;;;7.30;;
11671;SDS011;5892;43.412;24.612;2024-03-07T14:59:48;15.02;;;7.53;;
11671;SDS011;5892;43.412;24.612;2024-03-07T15:02:14;15.65;;;8.65;;
11671;SDS011;5892;43.412;24.612;2024-03-07T15:04:40;12.32;;;6.90;;
11671;SDS011;5892;43.412;24.612;2024-03-07T15:07:06;15.02;;;8.05;;
11671;SDS011;5892;43.412;24.612;2024-03-07T15:09:34;15.40;;;9.55;;
11671;SDS011;5892;43.412;24.612;2024-03-07T15:12:01;16.98;;;8.80;;
11671;SDS011;5892;43.412;24.612;2024-03-07T15:14:27;19.77;;;8.93;;
11671;SDS011;5892;43.412;24.612;2024-03-07T15:16:52;16.73;;;8.93;;